Airfield :
LOGIN :

Register | Disclaimer

   EN    FR    IT 

 










Legend :    VFR   Marginal VFR   IFR   Intensive IFR   Very Intensive IFR
Visi :
Ceiling :
>= 8 km
>= 3000ft
5 to 8 km
1000 to 3000 ft
1500m to 5 km
500 to 1000 ft
800 to 1500m
200 to 500 ft
< 800m
< 200 ft
Symbols :   Thunderstorms  Fog  Heavy snow  Heavy precipitations  Wind > 20 kt
SIGMETs :     Misc.  Thunderstorms  Icing  Turbulence  Mountain Waves  Volcanic Ashes






- Airport Elevation : 397 ft
- IATA code : IAS


LRIA - Iasi

CURRENT METAR :
  • 070900Z 11010KT CAVOK 26/10 Q1012

EXPIRED METARs :
  • 070830Z 13010KT CAVOK 26/10 Q1012
  • 070800Z 12010KT 100V160 CAVOK 25/11 Q1012
  • 070730Z 11009KT CAVOK 25/12 Q1012
  • 070700Z 12009KT CAVOK 24/12 Q1012
  • 070630Z 11006KT CAVOK 24/11 Q1012

TAF TAF LRIA
Valid from the 07 at 09:00 until the 07 at 18:00 UTC


070800Z 0709/0718 14010KT CAVOK
TEMPO 0711/0716 SCT040CB



MET'MAP, your aeronautical weather chart ! - Copyright ORBIFLY December 2007 - Disclaimer

ORBIFLY MET'MAP TEAM :

Programming & Development : Alexandra Zaïnal
Concept & original design : Baudouin d'Aumeries
Assistance for programming : Marc-Olivier Méhu
Technical & hardware support : Manuel Goepfert

Contact : metmap@orbifly.com




SOURCES & CREDITS :

   NOAA